createdAt,value
2022-09-07T00:00:24.101Z,8.50
2022-09-07T00:03:11.571Z,8.00
2022-09-07T00:05:59.177Z,9.32
2022-09-07T00:08:46.449Z,10.00
2022-09-07T00:11:33.710Z,8.43
2022-09-07T00:14:21.418Z,9.98
2022-09-07T00:17:08.669Z,11.25
2022-09-07T00:19:56.161Z,9.48
2022-09-07T00:22:43.461Z,7.40
2022-09-07T00:25:32.171Z,15.05
2022-09-07T00:28:19.521Z,14.82
2022-09-07T00:31:16.374Z,9.90
2022-09-07T00:34:03.702Z,11.18
2022-09-07T00:36:51.033Z,9.88
2022-09-07T00:39:38.614Z,8.73
2022-09-07T00:42:26.151Z,6.88
2022-09-07T00:45:20.989Z,8.10
2022-09-07T00:48:15.044Z,9.38
2022-09-07T00:51:06.885Z,7.28
2022-09-07T00:54:00.477Z,11.60
2022-09-07T00:56:49.832Z,4.45
2022-09-07T00:59:44.929Z,7.05
2022-09-07T01:02:32.476Z,10.35
2022-09-07T01:05:26.618Z,7.53
2022-09-07T01:08:14.193Z,6.85
2022-09-07T01:11:01.593Z,8.13
2022-09-07T01:13:50.701Z,9.27
2022-09-07T01:17:15.705Z,9.23
2022-09-07T01:20:35.327Z,6.22
2022-09-07T01:23:47.510Z,9.52
2022-09-07T01:26:46.978Z,11.77
2022-09-07T01:32:48.111Z,7.57
2022-09-07T01:35:50.429Z,7.50
2022-09-07T01:38:46.541Z,6.13
2022-09-07T01:41:45.965Z,11.55
2022-09-07T01:47:33.891Z,10.05
2022-09-07T01:50:38.137Z,9.23
2022-09-07T01:53:34.767Z,8.32
2022-09-07T01:56:34.985Z,9.73
2022-09-07T01:59:32.544Z,7.88
2022-09-07T02:02:24.829Z,8.52
2022-09-07T02:05:54.094Z,5.47
2022-09-07T02:08:49.300Z,5.78
2022-09-07T02:11:43.598Z,8.52
2022-09-07T02:14:36.769Z,7.03
2022-09-07T02:17:33.883Z,6.28
2022-09-07T02:20:32.517Z,8.25
2022-09-07T02:23:25.197Z,10.73
2022-09-07T02:26:19.710Z,8.93
2022-09-07T02:29:07.792Z,7.20
2022-09-07T02:31:55.077Z,6.50
2022-09-07T02:34:42.424Z,6.45
2022-09-07T02:37:31.176Z,11.02
2022-09-07T02:40:18.637Z,8.02
2022-09-07T02:43:08.811Z,6.88
2022-09-07T02:46:26.700Z,7.43
2022-09-07T02:49:44.495Z,9.18
2022-09-07T02:52:40.612Z,5.03
2022-09-07T02:55:58.769Z,5.25
2022-09-07T02:59:00.868Z,5.68
2022-09-07T03:02:09.836Z,6.65
2022-09-07T03:05:20.658Z,9.98
2022-09-07T03:08:21.893Z,7.88
2022-09-07T03:11:09.293Z,10.43
2022-09-07T03:14:16.117Z,12.52
2022-09-07T03:17:03.449Z,9.05
2022-09-07T03:19:50.684Z,7.78
2022-09-07T03:22:38.097Z,8.13
2022-09-07T03:25:25.380Z,12.57
2022-09-07T03:28:12.674Z,8.32
2022-09-07T03:31:01.977Z,8.48
2022-09-07T03:33:49.339Z,5.90
2022-09-07T03:36:36.985Z,11.10
2022-09-07T03:39:26.472Z,8.45
2022-09-07T03:45:00.789Z,8.90
2022-09-07T03:47:49.128Z,6.28
2022-09-07T03:50:36.482Z,9.52
2022-09-07T03:53:23.765Z,10.95
2022-09-07T03:56:13.921Z,12.25
2022-09-07T03:59:01.327Z,10.20
2022-09-07T04:01:48.638Z,9.50
2022-09-07T04:04:35.930Z,11.60
2022-09-07T04:07:23.217Z,11.35
2022-09-07T04:10:10.537Z,9.27
2022-09-07T04:12:57.802Z,14.85
2022-09-07T04:15:45.473Z,13.18
2022-09-07T04:18:36.620Z,10.63
2022-09-07T04:21:25.266Z,20.80
2022-09-07T04:24:16.549Z,9.87
2022-09-07T04:27:03.985Z,12.23
2022-09-07T04:29:51.265Z,12.05
2022-09-07T04:32:38.550Z,12.63
2022-09-07T04:35:25.832Z,14.20
2022-09-07T04:38:15.008Z,13.77
2022-09-07T04:41:09.371Z,13.75
2022-09-07T04:43:59.523Z,13.77
2022-09-07T04:46:46.805Z,18.80
2022-09-07T04:49:34.113Z,16.02
2022-09-07T04:52:21.477Z,17.50
2022-09-07T04:55:09.433Z,17.55
2022-09-07T04:57:56.680Z,15.57
2022-09-07T05:00:44.025Z,14.48
2022-09-07T05:03:33.582Z,15.52
2022-09-07T05:06:22.495Z,16.63
2022-09-07T05:09:10.434Z,15.93
2022-09-07T05:11:57.717Z,20.27
2022-09-07T05:14:45.034Z,19.40
2022-09-07T05:17:32.306Z,19.17
2022-09-07T05:20:21.054Z,19.42
2022-09-07T05:23:08.796Z,17.08
2022-09-07T05:25:56.068Z,18.35
2022-09-07T05:28:43.605Z,17.58
2022-09-07T05:31:31.580Z,18.73
2022-09-07T05:34:34.254Z,19.35
2022-09-07T05:37:21.565Z,24.35
2022-09-07T05:40:09.601Z,24.00
2022-09-07T05:42:56.898Z,22.85
2022-09-07T05:45:44.195Z,22.88
2022-09-07T05:48:31.779Z,23.35
2022-09-07T05:51:19.414Z,24.38
2022-09-07T05:54:06.842Z,24.42
2022-09-07T05:56:54.138Z,24.50
2022-09-07T05:59:41.402Z,22.42
2022-09-07T06:02:28.754Z,25.42
2022-09-07T06:05:16.253Z,23.48
2022-09-07T06:08:04.308Z,26.40
2022-09-07T06:10:51.744Z,27.65
2022-09-07T06:13:39.999Z,29.27
2022-09-07T06:16:27.336Z,28.35
2022-09-07T06:19:14.755Z,27.05
2022-09-07T06:22:02.010Z,27.10
2022-09-07T06:24:49.253Z,29.15
2022-09-07T06:27:36.525Z,28.08
2022-09-07T06:30:25.208Z,27.60
2022-09-07T06:33:12.519Z,28.08
2022-09-07T06:36:02.255Z,28.95
2022-09-07T06:38:51.070Z,28.42
2022-09-07T06:44:45.568Z,29.98
2022-09-07T06:47:32.830Z,32.55
2022-09-07T06:50:20.113Z,29.23
2022-09-07T06:56:17.261Z,31.20
2022-09-07T06:59:04.547Z,29.50
2022-09-07T07:01:51.808Z,28.40
2022-09-07T07:04:41.188Z,20.92
2022-09-07T07:07:29.479Z,21.77
2022-09-07T07:10:19.739Z,18.35
2022-09-07T07:13:09.561Z,20.25
2022-09-07T07:16:08.517Z,20.95
2022-09-07T07:18:56.372Z,23.40
2022-09-07T07:22:10.407Z,17.02
2022-09-07T07:24:51.267Z,19.15
2022-09-07T07:27:39.565Z,18.00
2022-09-07T07:30:26.946Z,19.13
2022-09-07T07:33:14.333Z,22.95
2022-09-07T07:36:19.408Z,19.88
2022-09-07T07:39:06.754Z,20.42
2022-09-07T07:41:55.493Z,20.70
2022-09-07T07:44:44.937Z,19.58
2022-09-07T07:47:32.242Z,16.75
2022-09-07T07:50:35.090Z,12.52
2022-09-07T07:56:29.600Z,13.60
2022-09-07T07:59:16.823Z,11.73
2022-09-07T08:02:08.557Z,11.52
2022-09-07T08:04:56.000Z,11.20
2022-09-07T08:07:43.246Z,9.50
2022-09-07T08:10:30.464Z,10.82
2022-09-07T08:13:18.260Z,10.32
2022-09-07T08:16:05.856Z,9.98
2022-09-07T08:18:53.610Z,9.68
2022-09-07T08:21:40.817Z,13.15
2022-09-07T08:24:28.040Z,7.38
2022-09-07T08:27:19.680Z,12.65
2022-09-07T08:30:07.716Z,7.78
2022-09-07T08:32:55.021Z,9.68
2022-09-07T08:35:42.366Z,13.07
2022-09-07T08:38:31.582Z,11.20
2022-09-07T08:41:56.090Z,10.85
2022-09-07T08:45:11.553Z,13.30
2022-09-07T08:47:59.045Z,13.27
2022-09-07T08:51:02.667Z,11.63
2022-09-07T08:53:50.106Z,12.38
2022-09-07T08:57:20.653Z,10.32
2022-09-07T09:00:26.966Z,9.95
2022-09-07T09:03:30.003Z,14.13
2022-09-07T09:06:49.774Z,12.80
2022-09-07T09:12:56.292Z,10.27
2022-09-07T09:16:10.163Z,9.40
2022-09-07T09:19:20.537Z,8.43
2022-09-07T09:22:14.426Z,11.20
2022-09-07T09:25:15.681Z,10.15
2022-09-07T09:28:03.129Z,9.55
2022-09-07T09:30:50.493Z,7.75
2022-09-07T09:33:37.867Z,6.75
2022-09-07T09:36:34.152Z,9.65
2022-09-07T09:39:31.998Z,15.43
2022-09-07T09:42:24.163Z,10.57
2022-09-07T09:45:16.870Z,9.48
2022-09-07T09:48:11.306Z,8.40
2022-09-07T09:54:23.297Z,6.47
2022-09-07T09:57:37.382Z,5.88
2022-09-07T10:00:29.874Z,6.18
2022-09-07T10:06:26.037Z,5.20
2022-09-07T10:09:20.025Z,7.45
2022-09-07T10:12:22.494Z,6.53
2022-09-07T10:15:40.428Z,7.25
2022-09-07T10:18:53.907Z,7.32
2022-09-07T10:21:43.294Z,5.40
2022-09-07T10:24:39.062Z,6.60
2022-09-07T10:27:33.079Z,6.22
2022-09-07T10:30:20.288Z,8.40
2022-09-07T10:33:20.432Z,9.27
2022-09-07T10:36:14.608Z,13.98
2022-09-07T10:39:08.264Z,9.43
2022-09-07T10:42:13.429Z,12.50
2022-09-07T10:45:17.134Z,10.00
2022-09-07T10:48:29.242Z,9.60
2022-09-07T10:51:39.742Z,5.65
2022-09-07T10:55:00.298Z,10.20
2022-09-07T10:58:16.962Z,6.78
2022-09-07T11:01:26.399Z,7.90
2022-09-07T11:04:32.397Z,11.65
2022-09-07T11:07:42.792Z,9.18
2022-09-07T11:10:42.983Z,7.60
2022-09-07T11:13:55.501Z,7.22
2022-09-07T11:16:55.494Z,10.02
2022-09-07T11:19:57.803Z,6.50
2022-09-07T11:22:53.375Z,9.85
2022-09-07T11:25:53.703Z,6.40
2022-09-07T11:29:29.141Z,7.45
2022-09-07T11:32:03.145Z,10.55
2022-09-07T11:34:55.304Z,9.57
2022-09-07T11:37:48.015Z,5.78
2022-09-07T11:40:42.049Z,6.32
2022-09-07T11:43:37.853Z,8.50
2022-09-07T11:46:38.779Z,9.52
2022-09-07T11:49:26.153Z,10.20
2022-09-07T11:52:29.157Z,8.75
2022-09-07T11:55:25.478Z,9.70
2022-09-07T11:58:23.713Z,7.80
2022-09-07T12:01:36.831Z,6.88
2022-09-07T12:04:56.536Z,6.95
2022-09-07T12:08:06.053Z,6.63
2022-09-07T12:11:19.077Z,8.98
2022-09-07T12:14:38.813Z,10.35
2022-09-07T12:17:56.704Z,8.93
2022-09-07T12:20:48.516Z,6.00
2022-09-07T12:23:35.758Z,8.32
2022-09-07T12:26:50.001Z,6.80
2022-09-07T12:29:38.027Z,11.48
2022-09-07T12:32:55.845Z,6.75
2022-09-07T12:35:44.597Z,9.98
2022-09-07T12:38:31.837Z,6.45
2022-09-07T12:41:25.478Z,7.75
2022-09-07T12:44:18.677Z,10.60
2022-09-07T12:47:28.354Z,10.07
2022-09-07T12:50:28.435Z,9.15
2022-09-07T12:53:31.537Z,7.93
2022-09-07T12:56:36.948Z,5.85
2022-09-07T12:59:36.229Z,8.25
2022-09-07T13:05:39.083Z,7.13
2022-09-07T13:08:50.880Z,9.35
2022-09-07T13:11:40.059Z,7.55
2022-09-07T13:14:29.364Z,6.10
2022-09-07T13:20:36.150Z,6.63
2022-09-07T13:23:26.628Z,5.68
2022-09-07T13:26:53.665Z,8.18
2022-09-07T13:29:40.800Z,6.43
2022-09-07T13:35:45.205Z,9.30
2022-09-07T13:38:36.481Z,6.88
2022-09-07T13:41:36.941Z,6.90
2022-09-07T13:44:34.312Z,5.95
2022-09-07T13:47:41.328Z,5.82
2022-09-07T13:50:44.354Z,8.20
2022-09-07T13:53:46.194Z,8.48
2022-09-07T13:56:52.202Z,6.07
2022-09-07T13:59:41.677Z,6.43
2022-09-07T14:02:33.390Z,8.30
2022-09-07T14:05:22.312Z,5.22
2022-09-07T14:08:29.493Z,7.43
2022-09-07T14:11:39.226Z,5.30
2022-09-07T14:14:29.354Z,5.10
2022-09-07T14:17:18.993Z,7.07
2022-09-07T14:20:07.057Z,6.50
2022-09-07T14:22:54.316Z,7.70
2022-09-07T14:28:51.821Z,5.18
2022-09-07T14:31:39.386Z,8.48
2022-09-07T14:34:37.406Z,6.25
2022-09-07T14:37:24.745Z,8.10
2022-09-07T14:40:32.228Z,6.65
2022-09-07T14:43:26.602Z,3.97
2022-09-07T14:46:18.327Z,4.22
2022-09-07T14:49:16.345Z,6.13
2022-09-07T14:52:03.709Z,3.70
2022-09-07T14:54:52.672Z,5.03
2022-09-07T14:57:39.884Z,4.32
2022-09-07T15:00:31.861Z,3.85
2022-09-07T15:03:50.495Z,5.82
2022-09-07T15:09:48.695Z,4.65
2022-09-07T15:12:41.473Z,5.38
2022-09-07T15:15:41.077Z,5.05
2022-09-07T15:18:46.233Z,5.47
2022-09-07T15:21:36.524Z,6.80
2022-09-07T15:24:23.755Z,7.97
2022-09-07T15:27:24.573Z,4.07
2022-09-07T15:30:11.968Z,5.65
2022-09-07T15:32:59.785Z,12.27
2022-09-07T15:35:52.047Z,4.03
2022-09-07T15:41:47.105Z,4.07
2022-09-07T15:44:34.360Z,6.75
2022-09-07T15:50:28.714Z,3.50
2022-09-07T15:56:24.137Z,4.20
2022-09-07T15:59:11.910Z,5.32
2022-09-07T16:01:59.453Z,5.18
2022-09-07T16:04:46.907Z,4.78
2022-09-07T16:10:41.507Z,7.13
2022-09-07T16:13:31.368Z,3.85
2022-09-07T16:16:19.137Z,3.53
2022-09-07T16:19:07.611Z,2.95
2022-09-07T16:21:57.660Z,4.82
2022-09-07T16:24:44.958Z,5.97
2022-09-07T16:27:33.705Z,5.53
2022-09-07T16:30:22.189Z,4.28
2022-09-07T16:33:09.612Z,3.63
2022-09-07T16:36:01.409Z,5.18
2022-09-07T16:38:48.958Z,3.40
2022-09-07T16:41:36.219Z,4.35
2022-09-07T16:44:23.551Z,4.50
2022-09-07T16:47:12.613Z,5.63
2022-09-07T16:49:59.841Z,5.00
2022-09-07T16:52:47.187Z,5.03
2022-09-07T16:55:34.450Z,4.03
2022-09-07T16:58:37.786Z,3.58
2022-09-07T17:01:31.361Z,5.15
2022-09-07T17:04:18.932Z,5.00
2022-09-07T17:07:06.189Z,2.25
2022-09-07T17:09:54.165Z,6.90
2022-09-07T17:12:41.392Z,5.82
2022-09-07T17:15:28.629Z,4.50
2022-09-07T17:18:16.273Z,7.15
2022-09-07T17:21:03.982Z,3.70
2022-09-07T17:23:55.567Z,5.10
2022-09-07T17:26:43.196Z,3.28
2022-09-07T17:29:32.972Z,5.53
2022-09-07T17:32:24.497Z,5.53
2022-09-07T17:35:12.516Z,5.70
2022-09-07T17:38:01.344Z,4.93
2022-09-07T17:40:48.629Z,6.97
2022-09-07T17:43:43.635Z,20.95
2022-09-07T17:46:32.710Z,8.88
2022-09-07T17:49:20.002Z,6.90
2022-09-07T17:52:07.288Z,9.55
2022-09-07T17:54:55.385Z,4.60
2022-09-07T17:57:42.624Z,4.82
2022-09-07T18:00:29.948Z,7.20
2022-09-07T18:03:17.224Z,5.90
2022-09-07T18:06:05.055Z,6.03
2022-09-07T18:08:52.379Z,9.23
2022-09-07T18:11:49.808Z,10.25
2022-09-07T18:14:37.510Z,7.90
2022-09-07T18:17:24.760Z,10.07
2022-09-07T18:20:12.029Z,11.27
2022-09-07T18:22:59.611Z,7.32
2022-09-07T18:25:56.788Z,9.52
2022-09-07T18:31:51.522Z,7.38
2022-09-07T18:34:40.561Z,8.27
2022-09-07T18:40:21.600Z,7.25
2022-09-07T18:43:09.544Z,8.52
2022-09-07T18:46:05.403Z,6.30
2022-09-07T18:48:54.034Z,10.18
2022-09-07T18:54:48.328Z,10.77
2022-09-07T18:57:36.525Z,8.43
2022-09-07T19:00:24.083Z,9.98
2022-09-07T19:03:11.632Z,9.38
2022-09-07T19:06:00.511Z,10.63
2022-09-07T19:08:48.339Z,9.85
2022-09-07T19:11:35.776Z,11.68
2022-09-07T19:14:23.106Z,13.15
2022-09-07T19:17:14.056Z,9.57
2022-09-07T19:20:03.576Z,11.57
2022-09-07T19:22:51.108Z,8.68
2022-09-07T19:25:41.995Z,10.27
2022-09-07T19:28:29.639Z,8.95
2022-09-07T19:31:16.994Z,10.20
2022-09-07T19:34:04.741Z,9.57
2022-09-07T19:36:51.962Z,12.13
2022-09-07T19:39:39.693Z,9.77
2022-09-07T19:42:27.589Z,10.05
2022-09-07T19:45:15.679Z,12.18
2022-09-07T19:48:02.907Z,9.68
2022-09-07T19:50:50.790Z,13.43
2022-09-07T19:53:43.525Z,11.63
2022-09-07T19:56:30.818Z,12.52
2022-09-07T19:59:19.629Z,7.63
2022-09-07T20:02:07.059Z,11.82
2022-09-07T20:04:54.517Z,9.45
2022-09-07T20:07:41.735Z,10.05
2022-09-07T20:10:31.233Z,10.98
2022-09-07T20:16:10.484Z,11.15
2022-09-07T20:18:59.477Z,13.65
2022-09-07T20:21:48.019Z,8.32
2022-09-07T20:24:35.355Z,13.90
2022-09-07T20:27:22.556Z,9.07
2022-09-07T20:30:10.425Z,11.18
2022-09-07T20:32:58.293Z,8.75
2022-09-07T20:35:47.566Z,10.63
2022-09-07T20:38:43.882Z,11.55
2022-09-07T20:41:33.648Z,12.68
2022-09-07T20:44:20.864Z,12.20
2022-09-07T20:47:08.110Z,11.65
2022-09-07T20:49:55.373Z,10.10
2022-09-07T20:52:42.597Z,12.40
2022-09-07T20:55:29.975Z,9.32
2022-09-07T20:58:17.710Z,12.48
2022-09-07T21:01:05.563Z,8.23
2022-09-07T21:03:55.671Z,12.20
2022-09-07T21:06:42.866Z,9.43
2022-09-07T21:09:30.093Z,8.68
2022-09-07T21:12:17.295Z,9.68
2022-09-07T21:15:04.904Z,14.32
2022-09-07T21:17:52.149Z,13.63
2022-09-07T21:20:39.378Z,9.57
2022-09-07T21:23:26.832Z,11.20
2022-09-07T21:26:14.381Z,14.05
2022-09-07T21:29:03.745Z,12.45
2022-09-07T21:31:53.387Z,15.23
2022-09-07T21:34:40.665Z,14.10
2022-09-07T21:37:27.898Z,8.52
2022-09-07T21:40:15.201Z,11.32
2022-09-07T21:43:02.652Z,9.40
2022-09-07T21:45:50.970Z,11.80
2022-09-07T21:48:38.515Z,14.40
2022-09-07T21:51:26.920Z,7.85
2022-09-07T21:54:14.151Z,12.55
2022-09-07T21:57:01.354Z,13.13
2022-09-07T21:59:48.910Z,9.68
2022-09-07T22:02:36.211Z,8.00
2022-09-07T22:05:23.495Z,9.25
2022-09-07T22:08:10.828Z,9.88
2022-09-07T22:11:04.773Z,9.82
2022-09-07T22:14:01.718Z,5.90
2022-09-07T22:16:48.971Z,9.02
2022-09-07T22:19:36.680Z,9.98
2022-09-07T22:22:23.871Z,10.02
2022-09-07T22:25:11.056Z,10.55
2022-09-07T22:27:58.561Z,8.23
2022-09-07T22:30:45.829Z,10.07
2022-09-07T22:33:33.071Z,7.40
2022-09-07T22:36:20.541Z,11.70
2022-09-07T22:39:11.518Z,5.97
2022-09-07T22:41:58.838Z,9.27
2022-09-07T22:44:46.058Z,10.00
2022-09-07T22:47:33.353Z,8.35
2022-09-07T22:50:20.558Z,8.52
2022-09-07T22:53:07.784Z,11.20
2022-09-07T22:55:55.618Z,17.58
2022-09-07T22:58:51.435Z,10.60
2022-09-07T23:01:38.871Z,10.75
2022-09-07T23:04:31.396Z,8.60
2022-09-07T23:07:18.958Z,8.18
2022-09-07T23:10:06.716Z,6.93
2022-09-07T23:12:54.188Z,10.80
2022-09-07T23:15:44.972Z,9.68
2022-09-07T23:18:33.217Z,10.57
2022-09-07T23:21:20.477Z,8.93
2022-09-07T23:24:07.840Z,8.40
2022-09-07T23:26:55.057Z,8.27
2022-09-07T23:29:42.313Z,9.95
2022-09-07T23:32:29.515Z,7.85
2022-09-07T23:35:16.881Z,8.15
2022-09-07T23:38:04.117Z,8.38
2022-09-07T23:40:51.547Z,8.50
2022-09-07T23:43:38.744Z,7.97
2022-09-07T23:46:26.055Z,11.00
2022-09-07T23:49:13.309Z,7.03
2022-09-07T23:52:00.513Z,10.13
2022-09-07T23:54:47.710Z,11.95
2022-09-07T23:57:34.940Z,12.95
